Elan — WDH9968 — position and weather

sailwx.info

Track history (hours):
 
Tides and Currents Weather Stations Pressure Air Temp Water Temp Dewpoint Dewpoint Depression Visibility Wind Speed Wind Dir Waves Ship Positions

Elan

Owner: Elan Maritime LLC, Berkeley, CA. More information available from US FCC via Universal Licensing System and Coast Guard Vessel Documentation Center.

Last reported at 2017-Oct-17 16:28 UTC. Time now 2017-Oct-17 17:14 UTC.
Position N 37°52' W 122°19'.

Length 17 m.

Type: Pleasure craft. MMSI: 367673390.

Date/timePositionNaut miles runAvg speedWind from/ knotsBaromVisibWave heightAir tempDewpointWater temp
2017-Oct-17 16:28N 37°52' W 122°19'4 9.2
2017-Oct-17 16:00N 37°49' W 122°23'4 8.1
2017-Oct-17 15:28N 37°52' W 122°19'0 0.0
2017-Oct-17 14:58N 37°52' W 122°19'0 0.0
2017-Oct-16 23:50N 37°52' W 122°19'0 0.3
2017-Oct-16 23:30N 37°52' W 122°19'611.3
2017-Oct-16 23:00N 37°48' W 122°24'5 9.4
2017-Oct-16 22:30N 37°52' W 122°20'3 5.9
2017-Oct-16 22:00N 37°50' W 122°23'4 7.9
2017-Oct-16 21:30N 37°52' W 122°19'0 0.0
2017-Oct-16 21:00N 37°52' W 122°19'0 0.0
2017-Oct-16 20:27N 37°52' W 122°19'0 0.0
2017-Oct-16 20:00N 37°52' W 122°19'0 0.0
2017-Oct-16 19:30N 37°52' W 122°19'0 0.0
2017-Oct-16 19:00N 37°52' W 122°19'0 0.0
2017-Oct-16 18:30N 37°52' W 122°19'0 0.0
2017-Oct-16 18:00N 37°52' W 122°19'0 0.0
2017-Oct-16 17:30N 37°52' W 122°19'0 0.0
2017-Oct-16 17:00N 37°52' W 122°19'0 0.0
2017-Oct-16 16:30N 37°52' W 122°19'3 6.9
2017-Oct-16 16:00N 37°50' W 122°22'3 6.4
2017-Oct-16 15:28N 37°52' W 122°19'0 0.0
2017-Oct-16 14:58N 37°52' W 122°19'  
2017-Oct-11 19:27N 37°52' W 122°19'0 0.0
2017-Oct-11 19:00N 37°52' W 122°19'0 0.0
2017-Oct-11 18:30N 37°52' W 122°19'0 0.1
2017-Oct-11 17:55N 37°52' W 122°19'0 0.0
2017-Oct-11 17:28N 37°52' W 122°19'0 0.0
2017-Oct-11 16:52N 37°52' W 122°19'  
2017-Oct-07 23:28N 37°52' W 122°19'0 0.4
2017-Oct-07 23:01N 37°52' W 122°19'510.8
2017-Oct-07 22:30N 37°49' W 122°25'0 0.0
2017-Oct-07 21:00N 37°49' W 122°25'3 6.7
2017-Oct-07 20:29N 37°51' W 122°21'  
Track history (hours):
 
Tides and Currents Weather Stations Pressure Air Temp Water Temp Dewpoint Dewpoint Depression Visibility Wind Speed Wind Dir Waves Ship Positions

Elan

Owner: Elan Maritime LLC, Berkeley, CA. More information available from US FCC via Universal Licensing System and Coast Guard Vessel Documentation Center.

Last reported at 2017-Oct-17 16:28 UTC. Time now 2017-Oct-17 17:14 UTC.
Position N 37°52' W 122°19'.

Length 17 m.

Type: Pleasure craft. MMSI: 367673390.

Date/timePositionNaut miles runAvg speedWind from/ knotsBaromVisibWave heightAir tempDewpointWater temp
2017-Oct-17 16:28N 37°52' W 122°19'4 9.2
2017-Oct-17 16:00N 37°49' W 122°23'4 8.1
2017-Oct-17 15:28N 37°52' W 122°19'0 0.0
2017-Oct-17 14:58N 37°52' W 122°19'0 0.0
2017-Oct-16 23:50N 37°52' W 122°19'0 0.3
2017-Oct-16 23:30N 37°52' W 122°19'611.3
2017-Oct-16 23:00N 37°48' W 122°24'5 9.4
2017-Oct-16 22:30N 37°52' W 122°20'3 5.9
2017-Oct-16 22:00N 37°50' W 122°23'4 7.9
2017-Oct-16 21:30N 37°52' W 122°19'0 0.0
2017-Oct-16 21:00N 37°52' W 122°19'0 0.0
2017-Oct-16 20:27N 37°52' W 122°19'0 0.0
2017-Oct-16 20:00N 37°52' W 122°19'0 0.0
2017-Oct-16 19:30N 37°52' W 122°19'0 0.0
2017-Oct-16 19:00N 37°52' W 122°19'0 0.0
2017-Oct-16 18:30N 37°52' W 122°19'0 0.0
2017-Oct-16 18:00N 37°52' W 122°19'0 0.0
2017-Oct-16 17:30N 37°52' W 122°19'0 0.0
2017-Oct-16 17:00N 37°52' W 122°19'0 0.0
2017-Oct-16 16:30N 37°52' W 122°19'3 6.9
2017-Oct-16 16:00N 37°50' W 122°22'3 6.4
2017-Oct-16 15:28N 37°52' W 122°19'0 0.0
2017-Oct-16 14:58N 37°52' W 122°19'  
2017-Oct-11 19:27N 37°52' W 122°19'0 0.0
2017-Oct-11 19:00N 37°52' W 122°19'0 0.0
2017-Oct-11 18:30N 37°52' W 122°19'0 0.1
2017-Oct-11 17:55N 37°52' W 122°19'0 0.0
2017-Oct-11 17:28N 37°52' W 122°19'0 0.0
2017-Oct-11 16:52N 37°52' W 122°19'  
2017-Oct-07 23:28N 37°52' W 122°19'0 0.4
2017-Oct-07 23:01N 37°52' W 122°19'510.8
2017-Oct-07 22:30N 37°49' W 122°25'0 0.0
2017-Oct-07 21:00N 37°49' W 122°25'3 6.7
2017-Oct-07 20:29N 37°51' W 122°21'  

Dump ship's entire track history